Alagon, Spain
Current Conditions -  °F | °C
As of 7:30 PM on Monday 22 Dec 2014 (Local Time) from LEZG Reporting Station
Moderate Fog Moderate Fog  
Wind Chill: 37°   Ceiling: 100
Heat Index: 37°   Visibility: 0.25mi
Dew Point: 37°   Wind: 3mph
Humidity: 100%   Direction: 100°E
Pressure: 30.48"   Gusts: NA
Location:  41.77°N, 1.12°W
Report Text: LEZG 221830Z 10003KT 050V150 0400 R30R/0900N R12R/1100UR30L/0900D FG VV001 03/03 Q1032
Loading
Personal Weather Stations






























Interactive Weather Map New forecast layout! Learn more

10-Day Weather Forecast

Advertisements
Track Severe Weather on mobile